Santa Isabel, Brazil
Current Conditions -  °F | °C
As of 1:00 PM on Friday 31 Oct 2014 (Local Time) from SBGR Reporting Station
Broken Clouds Broken Clouds  
Wind Chill: 30°   Ceiling: 4500
Heat Index: 31°   Visibility: 6mi
Dew Point: 18°   Wind: 9mph
Humidity: 48%   Direction: 340°NNW
Pressure: 30"   Gusts: NA
Location:  23.32°S, 46.22°W
Report Text: SBGR 311500Z 34008KT 9999 BKN045 30/18 Q1016
Loading
Personal Weather Stations






























Interactive Weather Map
Tropical Storm Tracking
New forecast layout! Learn more

10-Day Weather Forecast

Advertisements
Track Severe Weather on mobile